createdAt,value
2023-05-16T00:02:23.690Z,9.50
2023-05-16T00:04:51.972Z,9.50
2023-05-16T00:07:20.329Z,9.50
2023-05-16T00:09:48.512Z,9.30
2023-05-16T00:12:19.887Z,9.20
2023-05-16T00:14:48.218Z,9.10
2023-05-16T00:17:19.728Z,9.00
2023-05-16T00:19:49.012Z,9.00
2023-05-16T00:22:17.673Z,9.10
2023-05-16T00:24:46.309Z,9.00
2023-05-16T00:27:14.508Z,8.90
2023-05-16T00:29:44.208Z,8.80
2023-05-16T00:32:12.620Z,8.80
2023-05-16T00:34:41.150Z,8.70
2023-05-16T00:37:09.485Z,8.60
2023-05-16T00:39:37.809Z,8.60
2023-05-16T00:42:06.421Z,8.50
2023-05-16T00:44:34.658Z,8.40
2023-05-16T00:47:04.255Z,8.40
2023-05-16T00:49:32.695Z,8.50
2023-05-16T00:52:01.022Z,8.50
2023-05-16T00:54:29.576Z,8.50
2023-05-16T00:56:58.521Z,8.50
2023-05-16T00:59:27.207Z,8.50
2023-05-16T01:01:56.454Z,8.50
2023-05-16T01:04:26.816Z,8.50
2023-05-16T01:06:56.159Z,8.40
2023-05-16T01:09:24.745Z,8.40
2023-05-16T01:11:57.652Z,8.30
2023-05-16T01:14:31.743Z,8.40
2023-05-16T01:17:07.175Z,8.40
2023-05-16T01:19:58.012Z,8.30
2023-05-16T01:22:37.616Z,8.30
2023-05-16T01:25:22.853Z,8.20
2023-05-16T01:27:54.188Z,8.10
2023-05-16T01:30:22.812Z,8.10
2023-05-16T01:32:51.453Z,8.10
2023-05-16T01:35:20.323Z,8.00
2023-05-16T01:37:57.917Z,8.00
2023-05-16T01:40:31.869Z,8.00
2023-05-16T01:43:06.216Z,7.90
2023-05-16T01:45:37.214Z,7.90
2023-05-16T01:48:10.005Z,7.90
2023-05-16T01:50:41.680Z,8.00
2023-05-16T01:53:13.326Z,8.00
2023-05-16T01:55:49.598Z,8.00
2023-05-16T01:58:22.923Z,8.00
2023-05-16T02:00:51.243Z,7.90
2023-05-16T02:03:19.521Z,8.00
2023-05-16T02:05:47.785Z,7.90
2023-05-16T02:08:16.507Z,8.00
2023-05-16T02:10:44.724Z,8.10
2023-05-16T02:13:12.953Z,8.10
2023-05-16T02:15:42.584Z,8.10
2023-05-16T02:18:11.185Z,8.20
2023-05-16T02:20:39.782Z,8.20
2023-05-16T02:23:08.018Z,8.20
2023-05-16T02:25:36.208Z,8.20
2023-05-16T02:28:04.717Z,8.30
2023-05-16T02:30:32.930Z,8.30
2023-05-16T02:33:02.628Z,8.20
2023-05-16T02:35:31.023Z,8.20
2023-05-16T02:37:59.236Z,8.20
2023-05-16T02:40:27.498Z,8.20
2023-05-16T02:42:55.757Z,8.10
2023-05-16T02:45:24.077Z,8.10
2023-05-16T02:47:52.404Z,8.00
2023-05-16T02:50:22.175Z,8.00
2023-05-16T02:52:50.946Z,8.00
2023-05-16T02:55:22.269Z,8.00
2023-05-16T02:57:51.902Z,8.00
2023-05-16T03:00:20.719Z,8.10
2023-05-16T03:02:50.226Z,8.20
2023-05-16T03:05:18.676Z,8.10
2023-05-16T03:07:48.255Z,8.10
2023-05-16T03:10:16.465Z,8.10
2023-05-16T03:12:44.649Z,8.00
2023-05-16T03:15:12.959Z,7.90
2023-05-16T03:17:41.835Z,7.70
2023-05-16T03:20:11.518Z,7.70
2023-05-16T03:22:40.509Z,7.80
2023-05-16T03:25:10.762Z,7.90
2023-05-16T03:27:38.952Z,7.90
2023-05-16T03:30:08.787Z,7.80
2023-05-16T03:32:37.187Z,7.90
2023-05-16T03:35:06.089Z,7.90
2023-05-16T03:37:34.564Z,7.90
2023-05-16T03:40:05.470Z,7.80
2023-05-16T03:42:35.191Z,7.80
2023-05-16T03:45:03.460Z,7.80
2023-05-16T03:47:32.009Z,7.70
2023-05-16T03:50:00.398Z,7.80
2023-05-16T03:52:28.729Z,7.80
2023-05-16T03:54:57.041Z,7.80
2023-05-16T03:57:25.312Z,7.80
2023-05-16T03:59:54.960Z,7.90
2023-05-16T04:02:23.295Z,8.00
2023-05-16T04:04:51.604Z,8.10
2023-05-16T04:07:21.298Z,8.20
2023-05-16T04:09:52.206Z,8.30
2023-05-16T04:12:20.383Z,8.50
2023-05-16T04:14:48.755Z,8.70
2023-05-16T04:17:18.402Z,8.90
2023-05-16T04:19:46.637Z,9.20
2023-05-16T04:22:14.920Z,9.40
2023-05-16T04:24:43.138Z,9.50
2023-05-16T04:27:12.240Z,9.60
2023-05-16T04:29:40.556Z,9.70
2023-05-16T04:32:09.702Z,9.70
2023-05-16T04:34:40.233Z,9.70
2023-05-16T04:37:12.050Z,9.80
2023-05-16T04:39:40.232Z,9.90
2023-05-16T04:42:08.683Z,10.00
2023-05-16T04:44:37.385Z,10.20
2023-05-16T04:47:05.898Z,10.30
2023-05-16T04:49:34.135Z,10.50
2023-05-16T04:52:03.852Z,10.50
2023-05-16T04:54:32.460Z,10.60
2023-05-16T04:57:01.344Z,10.60
2023-05-16T04:59:29.558Z,10.60
2023-05-16T05:01:57.814Z,10.60
2023-05-16T05:04:26.368Z,10.70
2023-05-16T05:06:54.663Z,10.70
2023-05-16T05:09:24.549Z,10.80
2023-05-16T05:11:52.768Z,11.00
2023-05-16T05:14:21.432Z,11.00
2023-05-16T05:16:49.751Z,11.00
2023-05-16T05:19:18.054Z,11.10
2023-05-16T05:21:46.291Z,11.20
2023-05-16T05:24:14.493Z,11.30
2023-05-16T05:26:44.220Z,11.40
2023-05-16T05:29:12.536Z,11.40
2023-05-16T05:31:40.882Z,11.40
2023-05-16T05:34:09.116Z,11.50
2023-05-16T05:36:37.303Z,11.60
2023-05-16T05:39:05.672Z,11.60
2023-05-16T05:41:33.954Z,11.50
2023-05-16T05:44:03.952Z,11.50
2023-05-16T05:46:32.416Z,11.60
2023-05-16T05:49:00.762Z,11.70
2023-05-16T05:51:29.034Z,11.60
2023-05-16T05:53:57.389Z,11.50
2023-05-16T05:56:25.907Z,11.50
2023-05-16T05:58:57.204Z,11.50
2023-05-16T06:01:27.260Z,11.40
2023-05-16T06:03:55.460Z,11.50
2023-05-16T06:06:23.636Z,11.60
2023-05-16T06:08:51.868Z,11.60
2023-05-16T06:11:20.218Z,11.50
2023-05-16T06:13:48.447Z,11.60
2023-05-16T06:16:16.722Z,11.60
2023-05-16T06:18:46.686Z,11.70
2023-05-16T06:21:15.301Z,11.80
2023-05-16T06:23:43.513Z,11.80
2023-05-16T06:26:11.736Z,11.80
2023-05-16T06:28:39.925Z,11.80
2023-05-16T06:31:08.285Z,11.70
2023-05-16T06:33:36.620Z,11.60
2023-05-16T06:36:06.756Z,11.60
2023-05-16T06:38:35.152Z,11.60
2023-05-16T06:41:03.383Z,11.60
2023-05-16T06:43:31.656Z,11.70
2023-05-16T06:45:59.907Z,11.70
2023-05-16T06:48:28.631Z,11.80
2023-05-16T06:50:57.656Z,11.80
2023-05-16T06:53:27.359Z,11.80
2023-05-16T06:55:55.806Z,11.60
2023-05-16T06:58:24.017Z,11.50
2023-05-16T07:00:52.706Z,11.50
2023-05-16T07:03:21.099Z,11.50
2023-05-16T07:05:51.617Z,11.50
2023-05-16T07:08:19.915Z,11.50
2023-05-16T07:10:49.531Z,11.30
2023-05-16T07:13:17.740Z,11.20
2023-05-16T07:15:45.955Z,11.20
2023-05-16T07:18:14.332Z,11.20
2023-05-16T07:20:42.889Z,11.20
2023-05-16T07:23:11.131Z,11.30
2023-05-16T07:25:39.568Z,11.20
2023-05-16T07:28:09.205Z,11.20
2023-05-16T07:30:37.499Z,11.10
2023-05-16T07:33:05.992Z,11.10
2023-05-16T07:35:34.311Z,11.10
2023-05-16T07:38:02.636Z,11.00
2023-05-16T07:40:30.933Z,11.00
2023-05-16T07:42:59.574Z,11.00
2023-05-16T07:45:30.029Z,11.10
2023-05-16T07:48:00.035Z,11.20
2023-05-16T07:50:28.349Z,11.10
2023-05-16T07:52:56.732Z,11.00
2023-05-16T07:55:25.098Z,10.90
2023-05-16T07:57:53.497Z,10.80
2023-05-16T08:00:22.851Z,10.70
2023-05-16T08:02:52.950Z,10.60
2023-05-16T08:05:21.321Z,10.60
2023-05-16T08:07:51.690Z,10.60
2023-05-16T08:10:20.002Z,10.50
2023-05-16T08:12:48.422Z,10.40
2023-05-16T08:15:16.952Z,10.40
2023-05-16T08:17:45.259Z,10.30
2023-05-16T08:20:15.294Z,10.20
2023-05-16T08:22:43.560Z,10.20
2023-05-16T08:25:12.007Z,10.20
2023-05-16T08:27:40.805Z,10.20
2023-05-16T08:30:11.404Z,10.10
2023-05-16T08:32:39.967Z,10.10
2023-05-16T08:35:10.228Z,10.10
2023-05-16T08:37:39.904Z,10.10
2023-05-16T08:40:11.508Z,10.10
2023-05-16T08:42:40.843Z,10.20
2023-05-16T08:45:11.595Z,10.20
2023-05-16T08:47:42.430Z,10.20
2023-05-16T08:50:12.016Z,10.30
2023-05-16T08:52:44.890Z,10.20
2023-05-16T08:55:14.710Z,10.20
2023-05-16T08:57:43.561Z,10.30
2023-05-16T09:00:13.040Z,10.30
2023-05-16T09:02:42.340Z,10.30
2023-05-16T09:05:13.433Z,10.20
2023-05-16T09:07:43.454Z,10.10
2023-05-16T09:10:12.725Z,10.00
2023-05-16T09:12:42.308Z,9.90
2023-05-16T09:15:11.982Z,9.90
2023-05-16T09:17:42.634Z,9.80
2023-05-16T09:20:12.480Z,9.80
2023-05-16T09:22:51.132Z,9.90
2023-05-16T09:25:29.199Z,10.00
2023-05-16T09:28:01.912Z,10.00
2023-05-16T09:30:33.788Z,10.10
2023-05-16T09:33:02.437Z,10.20
2023-05-16T09:35:43.997Z,10.20
2023-05-16T09:38:17.539Z,10.20
2023-05-16T09:40:46.632Z,10.30
2023-05-16T09:43:18.239Z,10.20
2023-05-16T09:45:50.392Z,10.30
2023-05-16T09:48:19.192Z,10.30
2023-05-16T09:50:53.169Z,10.30
2023-05-16T09:53:28.696Z,10.20
2023-05-16T09:56:04.856Z,10.20
2023-05-16T09:58:37.496Z,10.30
2023-05-16T10:01:07.280Z,10.20
2023-05-16T10:03:36.719Z,10.10
2023-05-16T10:06:06.769Z,10.10
2023-05-16T10:08:38.099Z,10.10
2023-05-16T10:11:07.633Z,10.20
2023-05-16T10:13:37.796Z,10.30
2023-05-16T10:16:09.429Z,10.30
2023-05-16T10:18:39.489Z,10.20
2023-05-16T10:21:11.885Z,10.20
2023-05-16T10:23:43.767Z,10.20
2023-05-16T10:26:14.646Z,10.20
2023-05-16T10:28:43.285Z,10.10
2023-05-16T10:31:12.511Z,10.10
2023-05-16T10:33:41.379Z,10.10
2023-05-16T10:36:13.744Z,10.00
2023-05-16T10:38:44.555Z,10.00
2023-05-16T10:41:13.354Z,10.00
2023-05-16T10:43:45.513Z,10.00
2023-05-16T10:46:14.294Z,9.90
2023-05-16T10:48:43.794Z,9.90
2023-05-16T10:51:36.804Z,9.90
2023-05-16T10:54:10.843Z,9.90
2023-05-16T10:56:39.416Z,9.90
2023-05-16T10:59:24.828Z,9.80
2023-05-16T11:01:55.229Z,9.70
2023-05-16T11:04:23.575Z,9.80
2023-05-16T11:06:54.016Z,9.90
2023-05-16T11:09:28.431Z,10.10
2023-05-16T11:12:06.500Z,10.20
2023-05-16T11:14:39.769Z,10.20
2023-05-16T11:17:13.225Z,10.30
2023-05-16T11:19:43.457Z,10.30
2023-05-16T11:22:25.848Z,10.30
2023-05-16T11:24:58.247Z,10.40
2023-05-16T11:27:29.610Z,10.30
2023-05-16T11:30:03.718Z,10.50
2023-05-16T11:32:35.584Z,10.50
2023-05-16T11:35:07.996Z,10.60
2023-05-16T11:37:38.503Z,10.50
2023-05-16T11:40:11.426Z,10.50
2023-05-16T11:42:41.928Z,10.50
2023-05-16T11:45:12.307Z,10.40
2023-05-16T11:47:41.842Z,10.40
2023-05-16T11:50:14.025Z,10.40
2023-05-16T11:52:45.575Z,10.40
2023-05-16T11:55:28.101Z,10.40
2023-05-16T11:58:02.088Z,10.50
2023-05-16T12:00:30.585Z,10.50
2023-05-16T12:03:05.912Z,10.50
2023-05-16T12:05:35.782Z,10.40
2023-05-16T12:08:05.810Z,10.40
2023-05-16T12:10:35.727Z,10.40
2023-05-16T12:13:04.918Z,10.40
2023-05-16T12:15:33.545Z,10.40
2023-05-16T12:18:02.424Z,10.50
2023-05-16T12:20:30.945Z,10.40
2023-05-16T12:23:02.236Z,10.40
2023-05-16T12:25:36.393Z,10.40
2023-05-16T12:28:07.837Z,10.30
2023-05-16T12:30:36.261Z,10.20
2023-05-16T12:33:09.474Z,10.20
2023-05-16T12:35:41.278Z,10.30
2023-05-16T12:38:10.708Z,10.30
2023-05-16T12:40:39.655Z,10.20
2023-05-16T12:43:14.740Z,10.20
2023-05-16T12:45:43.480Z,10.20
2023-05-16T12:48:18.398Z,10.20
2023-05-16T12:50:47.440Z,10.20
2023-05-16T12:53:17.174Z,10.10
2023-05-16T12:55:46.203Z,10.00
2023-05-16T12:58:16.632Z,9.90
2023-05-16T13:00:44.951Z,9.80
2023-05-16T13:03:13.268Z,9.70
2023-05-16T13:05:41.751Z,9.60
2023-05-16T13:08:13.161Z,9.70
2023-05-16T13:10:41.384Z,9.70
2023-05-16T13:13:09.579Z,9.80
2023-05-16T13:15:44.911Z,9.80
2023-05-16T13:18:13.214Z,9.70
2023-05-16T13:20:42.309Z,9.70
2023-05-16T13:23:10.540Z,9.80
2023-05-16T13:25:38.857Z,9.90
2023-05-16T13:28:11.045Z,10.10
2023-05-16T13:30:40.976Z,10.30
2023-05-16T13:33:09.234Z,10.50
2023-05-16T13:35:37.511Z,10.70
2023-05-16T13:38:06.020Z,10.90
2023-05-16T13:40:34.275Z,10.90
2023-05-16T13:43:02.833Z,10.90
2023-05-16T13:45:31.481Z,10.90
2023-05-16T13:48:01.692Z,10.90
2023-05-16T13:53:01.061Z,11.10
2023-05-16T13:55:29.709Z,11.20
2023-05-16T13:57:58.369Z,11.40
2023-05-16T14:00:43.227Z,11.50
2023-05-16T14:03:14.812Z,11.50
2023-05-16T14:05:46.287Z,11.60
2023-05-16T14:08:14.512Z,11.60
2023-05-16T14:10:42.719Z,11.50
2023-05-16T14:13:10.979Z,11.40
2023-05-16T14:15:39.184Z,11.30
2023-05-16T14:18:07.739Z,11.10
2023-05-16T14:20:37.389Z,11.00
2023-05-16T14:23:05.609Z,11.00
2023-05-16T14:25:33.868Z,11.10
2023-05-16T14:28:05.353Z,11.20
2023-05-16T14:30:33.566Z,11.20
2023-05-16T14:33:03.455Z,11.20
2023-05-16T14:35:32.135Z,11.20
2023-05-16T14:38:02.255Z,11.20
2023-05-16T14:40:30.556Z,11.40
2023-05-16T14:42:58.789Z,11.50
2023-05-16T14:45:27.384Z,11.60
2023-05-16T14:47:55.879Z,11.60
2023-05-16T14:50:24.326Z,11.50
2023-05-16T14:52:53.087Z,11.60
2023-05-16T14:55:22.905Z,11.70
2023-05-16T14:57:57.101Z,11.90
2023-05-16T15:00:28.242Z,11.90
2023-05-16T15:02:56.707Z,11.90
2023-05-16T15:05:25.703Z,11.90
2023-05-16T15:07:54.078Z,11.80
2023-05-16T15:10:24.248Z,11.60
2023-05-16T15:12:52.587Z,11.60
2023-05-16T15:15:20.956Z,11.50
2023-05-16T15:17:49.406Z,11.40
2023-05-16T15:20:18.239Z,11.30
2023-05-16T15:22:47.787Z,11.20
2023-05-16T15:25:16.291Z,11.10
2023-05-16T15:27:46.019Z,11.00
2023-05-16T15:30:14.654Z,11.00
2023-05-16T15:32:42.887Z,11.00
2023-05-16T15:35:11.392Z,10.90
2023-05-16T15:37:42.249Z,10.90
2023-05-16T15:40:18.344Z,10.90
2023-05-16T15:42:48.698Z,10.90
2023-05-16T15:45:17.088Z,10.80
2023-05-16T15:47:45.476Z,10.80
2023-05-16T15:50:13.699Z,10.70
2023-05-16T15:52:42.175Z,10.70
2023-05-16T15:55:11.981Z,10.70
2023-05-16T15:57:40.622Z,10.70
2023-05-16T16:00:11.578Z,10.70
2023-05-16T16:02:40.318Z,10.70
2023-05-16T16:05:09.540Z,10.70
2023-05-16T16:07:37.834Z,10.70
2023-05-16T16:10:06.738Z,10.80
2023-05-16T16:12:38.091Z,10.80
2023-05-16T16:15:07.487Z,10.80
2023-05-16T16:17:37.147Z,10.70
2023-05-16T16:20:06.005Z,10.70
2023-05-16T16:22:34.266Z,10.60
2023-05-16T16:25:02.458Z,10.50
2023-05-16T16:27:30.720Z,10.50
2023-05-16T16:29:59.056Z,10.50
2023-05-16T16:32:27.438Z,10.40
2023-05-16T16:34:57.634Z,10.40
2023-05-16T16:37:26.059Z,10.30
2023-05-16T16:39:54.532Z,10.30
2023-05-16T16:42:25.206Z,10.30
2023-05-16T16:44:53.835Z,10.30
2023-05-16T16:47:23.043Z,10.30
2023-05-16T16:49:51.467Z,10.20
2023-05-16T16:52:23.983Z,10.20
2023-05-16T16:54:52.324Z,10.20
2023-05-16T16:57:20.638Z,10.10
2023-05-16T16:59:49.226Z,10.10
2023-05-16T17:02:17.827Z,10.10
2023-05-16T17:04:46.287Z,10.10
2023-05-16T17:07:14.553Z,10.10
2023-05-16T17:09:44.724Z,10.10
2023-05-16T17:12:20.334Z,10.10
2023-05-16T17:14:48.921Z,10.10
2023-05-16T17:17:17.448Z,10.10
2023-05-16T17:19:48.391Z,10.10
2023-05-16T17:22:16.635Z,10.00
2023-05-16T17:24:46.486Z,10.00
2023-05-16T17:27:14.712Z,9.90
2023-05-16T17:29:42.958Z,9.90
2023-05-16T17:32:14.061Z,9.90
2023-05-16T17:34:49.559Z,9.90
2023-05-16T17:37:18.202Z,9.90
2023-05-16T17:39:47.879Z,10.10
2023-05-16T17:42:21.916Z,10.10
2023-05-16T17:44:52.510Z,10.20
2023-05-16T17:47:20.797Z,10.20
2023-05-16T17:49:54.010Z,10.10
2023-05-16T17:52:23.336Z,10.10
2023-05-16T17:54:53.235Z,10.10
2023-05-16T17:57:21.517Z,10.10
2023-05-16T17:59:52.920Z,10.10
2023-05-16T18:02:21.246Z,10.00
2023-05-16T18:04:55.854Z,10.00
2023-05-16T18:07:26.921Z,10.00
2023-05-16T18:09:56.757Z,10.00
2023-05-16T18:12:25.261Z,10.00
2023-05-16T18:14:53.505Z,9.90
2023-05-16T18:17:21.866Z,9.90
2023-05-16T18:19:59.021Z,9.80
2023-05-16T18:22:27.616Z,9.80
2023-05-16T18:25:08.168Z,9.70
2023-05-16T18:27:36.855Z,9.70
2023-05-16T18:30:07.496Z,9.70
2023-05-16T18:32:36.580Z,9.60
2023-05-16T18:35:08.263Z,9.50
2023-05-16T18:37:36.641Z,9.40
2023-05-16T18:40:07.736Z,9.40
2023-05-16T18:42:36.010Z,9.30
2023-05-16T18:45:04.500Z,9.30
2023-05-16T18:47:35.594Z,9.20
2023-05-16T18:50:04.708Z,9.10
2023-05-16T18:52:35.276Z,9.00
2023-05-16T18:55:11.781Z,8.90
2023-05-16T18:57:44.190Z,8.80
2023-05-16T19:00:13.616Z,8.80
2023-05-16T19:02:42.918Z,8.70
2023-05-16T19:05:20.989Z,8.60
2023-05-16T19:07:49.279Z,8.60
2023-05-16T19:10:19.213Z,8.50
2023-05-16T19:12:53.560Z,8.40
2023-05-16T19:15:21.974Z,8.30
2023-05-16T19:17:53.163Z,8.30
2023-05-16T19:20:21.604Z,8.20
2023-05-16T19:22:49.824Z,8.20
2023-05-16T19:25:23.833Z,8.10
2023-05-16T19:27:53.317Z,8.10
2023-05-16T19:30:21.672Z,8.00
2023-05-16T19:32:56.119Z,8.00
2023-05-16T19:35:32.888Z,8.00
2023-05-16T19:38:02.517Z,8.00
2023-05-16T19:40:33.620Z,7.90
2023-05-16T19:43:02.059Z,7.90
2023-05-16T19:45:30.744Z,7.80
2023-05-16T19:48:01.300Z,7.80
2023-05-16T19:50:29.825Z,7.80
2023-05-16T19:52:58.047Z,7.80
2023-05-16T19:55:27.372Z,7.80
2023-05-16T19:57:57.343Z,7.80
2023-05-16T20:00:25.971Z,7.70
2023-05-16T20:02:54.528Z,7.70
2023-05-16T20:05:23.555Z,7.80
2023-05-16T20:07:53.280Z,7.80
2023-05-16T20:10:24.354Z,7.70
2023-05-16T20:12:52.674Z,7.60
2023-05-16T20:15:22.403Z,7.50
2023-05-16T20:17:53.783Z,7.50
2023-05-16T20:20:22.336Z,7.40
2023-05-16T20:22:53.474Z,7.40
2023-05-16T20:25:21.780Z,7.30
2023-05-16T20:27:50.150Z,7.30
2023-05-16T20:30:18.445Z,7.20
2023-05-16T20:32:48.171Z,7.20
2023-05-16T20:35:16.578Z,7.20
2023-05-16T20:37:47.966Z,7.20
2023-05-16T20:40:16.326Z,7.20
2023-05-16T20:42:44.551Z,7.20
2023-05-16T20:45:12.857Z,7.20
2023-05-16T20:47:41.214Z,7.20
2023-05-16T20:50:11.815Z,7.20
2023-05-16T20:52:40.053Z,7.10
2023-05-16T20:55:08.965Z,7.10
2023-05-16T20:57:37.247Z,7.10
2023-05-16T21:00:10.111Z,7.10
2023-05-16T21:02:38.440Z,7.10
2023-05-16T21:05:23.104Z,7.10
2023-05-16T21:07:54.594Z,7.10
2023-05-16T21:10:22.961Z,7.10
2023-05-16T21:12:51.358Z,7.00
2023-05-16T21:15:23.107Z,7.00
2023-05-16T21:17:51.993Z,7.00
2023-05-16T21:20:20.676Z,7.00
2023-05-16T21:22:48.907Z,7.00
2023-05-16T21:25:18.558Z,7.00
2023-05-16T21:27:46.826Z,6.90
2023-05-16T21:30:15.681Z,6.90
2023-05-16T21:32:44.028Z,6.80
2023-05-16T21:35:12.370Z,6.80
2023-05-16T21:37:40.740Z,6.80
2023-05-16T21:40:10.370Z,6.70
2023-05-16T21:42:43.037Z,6.70
2023-05-16T21:45:16.389Z,6.70
2023-05-16T21:47:45.089Z,6.60
2023-05-16T21:50:13.956Z,6.50
2023-05-16T21:52:42.721Z,6.50
2023-05-16T21:55:11.388Z,6.50
2023-05-16T21:57:41.052Z,6.40
2023-05-16T22:00:10.290Z,6.40
2023-05-16T22:02:38.904Z,6.40
2023-05-16T22:05:08.370Z,6.30
2023-05-16T22:07:37.296Z,6.30
2023-05-16T22:10:07.430Z,6.30
2023-05-16T22:12:35.707Z,6.20
2023-05-16T22:15:05.946Z,6.20
2023-05-16T22:17:34.327Z,6.20
2023-05-16T22:20:03.198Z,6.20
2023-05-16T22:22:31.468Z,6.30
2023-05-16T22:24:59.737Z,6.30
2023-05-16T22:27:28.048Z,6.50
2023-05-16T22:29:56.251Z,6.80
2023-05-16T22:32:25.921Z,6.90
2023-05-16T22:34:54.476Z,7.00
2023-05-16T22:37:22.845Z,7.00
2023-05-16T22:39:51.524Z,7.10
2023-05-16T22:42:19.910Z,7.10
2023-05-16T22:44:48.162Z,7.10
2023-05-16T22:47:16.423Z,7.20
2023-05-16T22:49:46.028Z,7.20
2023-05-16T22:52:14.254Z,7.30
2023-05-16T22:54:42.684Z,7.30
2023-05-16T22:57:10.960Z,7.30
2023-05-16T22:59:39.171Z,7.20
2023-05-16T23:02:07.535Z,7.20
2023-05-16T23:04:35.873Z,7.20
2023-05-16T23:07:05.871Z,7.20
2023-05-16T23:09:34.152Z,7.20
2023-05-16T23:12:02.756Z,7.20
2023-05-16T23:14:31.152Z,7.20
2023-05-16T23:16:59.410Z,7.20
2023-05-16T23:19:27.735Z,7.10
2023-05-16T23:21:56.060Z,7.00
2023-05-16T23:24:25.803Z,6.90
2023-05-16T23:26:54.095Z,7.00
2023-05-16T23:29:22.312Z,6.90
2023-05-16T23:31:50.563Z,6.80
2023-05-16T23:34:18.805Z,6.80
2023-05-16T23:36:47.039Z,6.70
2023-05-16T23:39:15.366Z,6.60
2023-05-16T23:41:45.061Z,6.50
2023-05-16T23:44:13.412Z,6.40
2023-05-16T23:46:41.688Z,6.40
2023-05-16T23:49:09.933Z,6.40
2023-05-16T23:51:52.814Z,6.30
2023-05-16T23:54:25.557Z,6.30
2023-05-16T23:56:55.191Z,6.20
2023-05-16T23:59:23.445Z,6.10
